Terminal Aerodrome Forecast
Issued by NWS Green Bay, WI

Home | Current Version | Previous Version | Text Only | Print | Product List | Glossary On
Versions: 1 2 3 4 5 6 7 8 9 10 11 12 13 14 15 16 17 18 19 20 21 22 23 24 25 26 27 28 29 30 31 32
000
FTUS43 KGRB 301700
TAFGRB
TAF
KGRB 301736Z 3018/3118 32010KT P6SM SCT040
      TEMPO 3018/3021 BKN040
     FM302100 28007KT P6SM VCSH BKN045 BKN080
     FM302300 19005KT P6SM VCTS BKN040CB BKN080
     FM310800 24003KT 6SM BR SCT080
     FM311300 27006KT P6SM SCT040 SCT100=

USA.gov is the U.S. government's official web portal to all federal, state and local government web resources and services.